createdAt,value
2022-08-03T00:02:19.383Z,98244.59
2022-08-03T00:04:48.900Z,98250.88
2022-08-03T00:07:19.056Z,98249.28
2022-08-03T00:09:48.487Z,98243.88
2022-08-03T00:12:18.075Z,98244.59
2022-08-03T00:14:47.807Z,98243.72
2022-08-03T00:17:17.492Z,98243.00
2022-08-03T00:19:46.981Z,98251.31
2022-08-03T00:22:16.985Z,98240.78
2022-08-03T00:24:46.561Z,98243.09
2022-08-03T00:27:16.657Z,98247.84
2022-08-03T00:29:57.596Z,98246.41
2022-08-03T00:32:29.466Z,98253.09
2022-08-03T00:34:59.808Z,98251.75
2022-08-03T00:37:41.202Z,98251.75
2022-08-03T00:40:15.279Z,98253.59
2022-08-03T00:43:00.718Z,98255.47
2022-08-03T00:45:31.898Z,98259.56
2022-08-03T00:48:01.818Z,98243.50
2022-08-03T00:50:34.746Z,98243.19
2022-08-03T00:53:06.012Z,98247.84
2022-08-03T00:55:35.446Z,98242.41
2022-08-03T00:58:06.711Z,98242.91
2022-08-03T01:00:39.023Z,98249.59
2022-08-03T01:03:09.444Z,98252.38
2022-08-03T01:05:43.230Z,98252.78
2022-08-03T01:08:34.588Z,98245.06
2022-08-03T01:11:15.264Z,98244.00
2022-08-03T01:14:18.708Z,98251.56
2022-08-03T01:17:00.288Z,98244.41
2022-08-03T01:19:46.737Z,98246.53
2022-08-03T01:22:40.465Z,98246.47
2022-08-03T01:25:31.824Z,98244.44
2022-08-03T01:28:17.073Z,98239.72
2022-08-03T01:30:48.779Z,98241.91
2022-08-03T01:33:23.650Z,98240.28
2022-08-03T01:36:08.775Z,98240.53
2022-08-03T01:38:39.784Z,98242.78
2022-08-03T01:41:13.211Z,98247.28
2022-08-03T01:44:27.698Z,98250.28
2022-08-03T01:46:34.191Z,98242.19
2022-08-03T01:49:09.156Z,98250.00
2022-08-03T01:52:03.447Z,98244.03
2022-08-03T01:54:31.253Z,98237.84
2022-08-03T01:57:01.432Z,98244.44
2022-08-03T01:59:32.217Z,98245.50
2022-08-03T02:02:32.118Z,98247.13
2022-08-03T02:04:53.414Z,98242.50
2022-08-03T02:07:22.786Z,98247.94
2022-08-03T02:09:54.007Z,98236.94
2022-08-03T02:12:25.287Z,98235.06
2022-08-03T02:14:54.844Z,98240.44
2022-08-03T02:17:39.304Z,98235.88
2022-08-03T02:20:10.557Z,98236.03
2022-08-03T02:22:42.535Z,98236.03
2022-08-03T02:25:18.438Z,98234.41
2022-08-03T02:28:30.212Z,98232.69
2022-08-03T02:30:59.728Z,98236.94
2022-08-03T02:33:35.309Z,98240.78
2022-08-03T02:36:05.163Z,98238.00
2022-08-03T02:38:37.495Z,98236.38
2022-08-03T02:41:11.062Z,98237.00
2022-08-03T02:44:07.221Z,98237.31
2022-08-03T02:46:36.112Z,98239.22
2022-08-03T02:49:40.551Z,98238.50
2022-08-03T02:51:56.260Z,98236.78
2022-08-03T02:54:26.797Z,98238.75
2022-08-03T02:56:59.977Z,98231.59
2022-08-03T02:59:31.416Z,98232.97
2022-08-03T03:02:03.096Z,98232.28
2022-08-03T03:04:33.565Z,98228.75
2022-08-03T03:07:04.454Z,98233.56
2022-08-03T03:09:41.646Z,98228.75
2022-08-03T03:12:13.735Z,98225.03
2022-08-03T03:14:43.303Z,98237.25
2022-08-03T03:17:14.079Z,98233.34
2022-08-03T03:19:45.533Z,98233.34
2022-08-03T03:22:16.054Z,98229.09
2022-08-03T03:24:46.105Z,98230.56
2022-08-03T03:27:17.451Z,98228.94
2022-08-03T03:29:47.138Z,98227.47
2022-08-03T03:32:17.103Z,98230.63
2022-08-03T03:34:46.849Z,98235.44
2022-08-03T03:37:16.117Z,98224.53
2022-08-03T03:39:45.461Z,98227.28
2022-08-03T03:42:14.811Z,98227.47
2022-08-03T03:44:44.239Z,98224.31
2022-08-03T03:47:13.527Z,98232.81
2022-08-03T03:49:44.145Z,98231.25
2022-08-03T03:52:14.156Z,98232.59
2022-08-03T03:54:44.833Z,98224.69
2022-08-03T03:57:14.705Z,98228.75
2022-08-03T03:59:45.198Z,98226.91
2022-08-03T04:02:15.104Z,98227.91
2022-08-03T04:04:57.086Z,98230.91
2022-08-03T04:07:40.032Z,98234.19
2022-08-03T04:10:26.745Z,98224.63
2022-08-03T04:12:57.290Z,98228.47
2022-08-03T04:15:26.977Z,98227.91
2022-08-03T04:17:58.849Z,98229.94
2022-08-03T04:20:31.132Z,98231.03
2022-08-03T04:23:02.674Z,98235.59
2022-08-03T04:25:34.160Z,98241.47
2022-08-03T04:28:29.496Z,98242.38
2022-08-03T04:30:55.613Z,98238.53
2022-08-03T04:33:25.646Z,98244.97
2022-08-03T04:36:03.405Z,98243.81
2022-08-03T04:38:34.510Z,98246.59
2022-08-03T04:41:04.491Z,98245.28
2022-08-03T04:43:36.016Z,98240.13
2022-08-03T04:46:05.695Z,98240.44
2022-08-03T04:48:35.018Z,98249.25
2022-08-03T04:51:04.591Z,98243.88
2022-08-03T04:53:33.875Z,98258.66
2022-08-03T04:56:09.215Z,98263.22
2022-08-03T04:58:38.500Z,98255.41
2022-08-03T05:01:07.924Z,98255.38
2022-08-03T05:03:37.405Z,98263.94
2022-08-03T05:06:11.026Z,98257.59
2022-08-03T05:08:46.548Z,98255.69
2022-08-03T05:11:16.289Z,98257.97
2022-08-03T05:13:46.195Z,98258.41
2022-08-03T05:16:16.067Z,98257.22
2022-08-03T05:18:46.093Z,98252.09
2022-08-03T05:21:16.983Z,98255.25
2022-08-03T05:23:47.481Z,98249.38
2022-08-03T05:26:16.857Z,98252.22
2022-08-03T05:28:51.007Z,98258.56
2022-08-03T05:31:21.095Z,98254.56
2022-08-03T05:33:50.679Z,98251.25
2022-08-03T05:36:19.977Z,98245.38
2022-08-03T05:38:49.191Z,98245.16
2022-08-03T05:41:22.906Z,98252.50
2022-08-03T05:43:54.563Z,98258.38
2022-08-03T05:46:25.177Z,98252.59
2022-08-03T05:48:54.559Z,98250.75
2022-08-03T05:51:23.892Z,98249.63
2022-08-03T05:53:53.140Z,98251.25
2022-08-03T05:56:25.901Z,98256.34
2022-08-03T05:58:55.651Z,98258.50
2022-08-03T06:01:25.279Z,98258.00
2022-08-03T06:03:54.796Z,98259.38
2022-08-03T06:06:24.042Z,98260.94
2022-08-03T06:08:53.325Z,98261.72
2022-08-03T06:11:22.588Z,98258.84
2022-08-03T06:13:51.873Z,98263.31
2022-08-03T06:16:21.096Z,98262.88
2022-08-03T06:18:50.449Z,98259.31
2022-08-03T06:21:19.711Z,98263.91
2022-08-03T06:23:54.601Z,98258.66
2022-08-03T06:26:25.888Z,98268.78
2022-08-03T06:28:55.505Z,98253.56
2022-08-03T06:31:33.142Z,98249.69
2022-08-03T06:34:33.715Z,98260.75
2022-08-03T06:36:58.459Z,98253.84
2022-08-03T06:39:31.310Z,98251.22
2022-08-03T06:42:00.752Z,98252.69
2022-08-03T06:44:29.997Z,98255.97
2022-08-03T06:46:59.292Z,98248.53
2022-08-03T06:49:28.674Z,98258.63
2022-08-03T06:52:06.042Z,98260.53
2022-08-03T06:54:36.287Z,98254.78
2022-08-03T06:57:06.039Z,98255.34
2022-08-03T07:00:08.447Z,98262.69
2022-08-03T07:02:24.670Z,98257.41
2022-08-03T07:04:57.617Z,98257.59
2022-08-03T07:07:26.914Z,98259.22
2022-08-03T07:09:57.785Z,98260.09
2022-08-03T07:12:28.071Z,98259.91
2022-08-03T07:15:01.275Z,98257.25
2022-08-03T07:17:33.090Z,98257.22
2022-08-03T07:20:03.163Z,98259.59
2022-08-03T07:22:32.515Z,98262.63
2022-08-03T07:25:02.018Z,98256.28
2022-08-03T07:27:31.430Z,98251.47
2022-08-03T07:30:01.721Z,98254.75
2022-08-03T07:32:31.834Z,98256.69
2022-08-03T07:35:01.759Z,98259.91
2022-08-03T07:37:32.149Z,98263.22
2022-08-03T07:40:03.082Z,98253.13
2022-08-03T07:42:32.905Z,98253.03
2022-08-03T07:45:02.844Z,98241.53
2022-08-03T07:47:36.033Z,98242.44
2022-08-03T07:50:06.641Z,98241.09
2022-08-03T07:52:53.712Z,98236.63
2022-08-03T07:55:25.660Z,98242.78
2022-08-03T07:58:09.404Z,98241.16
2022-08-03T08:00:38.989Z,98239.25
2022-08-03T08:03:08.340Z,98237.81
2022-08-03T08:05:37.692Z,98236.22
2022-08-03T08:08:07.346Z,98241.41
2022-08-03T08:10:36.686Z,98240.78
2022-08-03T08:13:06.747Z,98242.06
2022-08-03T08:15:36.074Z,98242.31
2022-08-03T08:18:12.955Z,98240.88
2022-08-03T08:20:42.481Z,98233.94
2022-08-03T08:23:37.948Z,98237.66
2022-08-03T08:26:02.349Z,98241.00
2022-08-03T08:28:33.690Z,98240.16
2022-08-03T08:31:04.113Z,98237.34
2022-08-03T08:34:02.676Z,98234.19
2022-08-03T08:36:24.194Z,98235.69
2022-08-03T08:38:53.451Z,98242.81
2022-08-03T08:41:22.747Z,98229.88
2022-08-03T08:43:52.068Z,98236.34
2022-08-03T08:46:23.731Z,98236.97
2022-08-03T08:48:54.077Z,98237.47
2022-08-03T08:51:24.828Z,98233.94
2022-08-03T08:54:14.211Z,98228.69
2022-08-03T08:56:44.307Z,98232.69
2022-08-03T08:59:13.683Z,98225.91
2022-08-03T09:01:42.958Z,98236.38
2022-08-03T09:04:12.369Z,98233.59
2022-08-03T09:06:47.321Z,98227.69
2022-08-03T09:10:08.147Z,98231.09
2022-08-03T09:12:39.187Z,98225.72
2022-08-03T09:15:19.929Z,98226.59
2022-08-03T09:17:51.268Z,98232.16
2022-08-03T09:20:22.217Z,98225.44
2022-08-03T09:22:59.865Z,98226.28
2022-08-03T09:25:34.605Z,98223.75
2022-08-03T09:28:09.117Z,98226.84
2022-08-03T09:30:39.358Z,98223.50
2022-08-03T09:33:13.858Z,98221.34
2022-08-03T09:35:53.758Z,98219.69
2022-08-03T09:38:27.649Z,98228.50
2022-08-03T09:41:00.614Z,98220.88
2022-08-03T09:43:30.860Z,98226.50
2022-08-03T09:46:07.827Z,98221.47
2022-08-03T09:48:37.458Z,98206.53
2022-08-03T09:51:12.920Z,98210.78
2022-08-03T09:53:59.791Z,98216.72
2022-08-03T09:56:42.432Z,98206.97
2022-08-03T09:59:12.906Z,98213.88
2022-08-03T10:01:44.324Z,98203.84
2022-08-03T10:04:17.621Z,98207.63
2022-08-03T10:06:48.026Z,98203.38
2022-08-03T10:09:19.798Z,98204.19
2022-08-03T10:11:49.840Z,98207.97
2022-08-03T10:14:22.668Z,98200.59
2022-08-03T10:16:52.392Z,98191.44
2022-08-03T10:19:21.786Z,98193.38
2022-08-03T10:21:53.648Z,98186.13
2022-08-03T10:24:31.040Z,98196.41
2022-08-03T10:27:05.637Z,98188.69
2022-08-03T10:29:40.984Z,98181.22
2022-08-03T10:32:14.684Z,98186.94
2022-08-03T10:34:45.363Z,98180.72
2022-08-03T10:37:15.121Z,98182.09
2022-08-03T10:39:53.643Z,98182.97
2022-08-03T10:42:27.299Z,98175.25
2022-08-03T10:45:10.136Z,98179.50
2022-08-03T10:47:39.665Z,98176.00
2022-08-03T10:50:09.773Z,98180.22
2022-08-03T10:52:41.397Z,98172.47
2022-08-03T10:55:49.283Z,98168.41
2022-08-03T10:58:30.573Z,98174.97
2022-08-03T11:01:00.267Z,98177.91
2022-08-03T11:03:29.559Z,98168.19
2022-08-03T11:06:20.018Z,98161.81
2022-08-03T11:08:50.496Z,98168.16
2022-08-03T11:11:19.643Z,98163.38
2022-08-03T11:14:14.208Z,98157.84
2022-08-03T11:16:47.946Z,98162.69
2022-08-03T11:19:22.525Z,98156.06
2022-08-03T11:21:51.779Z,98160.34
2022-08-03T11:24:39.498Z,98158.31
2022-08-03T11:27:18.092Z,98149.44
2022-08-03T11:30:04.268Z,98152.66
2022-08-03T11:32:48.210Z,98151.56
2022-08-03T11:35:18.969Z,98147.28
2022-08-03T11:38:03.545Z,98146.00
2022-08-03T11:40:52.722Z,98143.78
2022-08-03T11:43:28.988Z,98150.97
2022-08-03T11:46:04.293Z,98150.41
2022-08-03T11:48:44.049Z,98136.56
2022-08-03T11:51:29.817Z,98138.19
2022-08-03T11:54:06.122Z,98139.81
2022-08-03T11:56:52.591Z,98128.41
2022-08-03T11:59:34.837Z,98137.34
2022-08-03T12:02:16.476Z,98134.94
2022-08-03T12:04:58.375Z,98136.09
2022-08-03T12:08:03.046Z,98136.97
2022-08-03T12:10:17.971Z,98136.38
2022-08-03T12:12:47.305Z,98132.22
2022-08-03T12:15:17.352Z,98126.50
2022-08-03T12:17:46.679Z,98121.53
2022-08-03T12:20:35.307Z,98117.41
2022-08-03T12:23:07.049Z,98123.94
2022-08-03T12:25:39.657Z,98122.53
2022-08-03T12:28:30.345Z,98113.66
2022-08-03T12:31:09.531Z,98118.81
2022-08-03T12:33:59.302Z,98117.38
2022-08-03T12:36:29.800Z,98108.97
2022-08-03T12:39:01.698Z,98114.88
2022-08-03T12:41:36.618Z,98108.78
2022-08-03T12:44:07.475Z,98098.34
2022-08-03T12:46:41.755Z,98097.03
2022-08-03T12:49:15.622Z,98100.63
2022-08-03T12:51:44.853Z,98100.75
2022-08-03T12:54:24.528Z,98105.06
2022-08-03T12:57:16.005Z,98097.13
2022-08-03T12:59:52.775Z,98094.19
2022-08-03T13:02:25.199Z,98097.97
2022-08-03T13:04:57.589Z,98096.56
2022-08-03T13:07:26.927Z,98090.28
2022-08-03T13:09:59.221Z,98088.97
2022-08-03T13:12:31.773Z,98090.13
2022-08-03T13:15:02.690Z,98085.53
2022-08-03T13:17:31.925Z,98085.53
2022-08-03T13:20:01.241Z,98082.72
2022-08-03T13:22:31.147Z,98085.66
2022-08-03T13:25:01.570Z,98078.72
2022-08-03T13:28:03.508Z,98060.34
2022-08-03T13:30:29.795Z,98079.59
2022-08-03T13:33:01.453Z,98079.63
2022-08-03T13:35:30.723Z,98079.66
2022-08-03T13:37:59.991Z,98068.22
2022-08-03T13:40:34.417Z,98074.50
2022-08-03T13:43:07.685Z,98074.47
2022-08-03T13:45:36.953Z,98073.78
2022-08-03T13:48:09.536Z,98064.00
2022-08-03T13:50:42.950Z,98068.28
2022-08-03T13:53:12.568Z,98067.53
2022-08-03T13:55:41.820Z,98071.72
2022-08-03T13:58:12.479Z,98058.88
2022-08-03T14:00:42.499Z,98061.59
2022-08-03T14:03:14.498Z,98057.34
2022-08-03T14:05:45.492Z,98053.88
2022-08-03T14:08:15.030Z,98048.94
2022-08-03T14:10:46.022Z,98051.88
2022-08-03T14:13:18.005Z,98054.59
2022-08-03T14:15:49.711Z,98042.41
2022-08-03T14:18:27.658Z,98045.88
2022-08-03T14:21:06.015Z,98048.78
2022-08-03T14:23:36.363Z,98038.72
2022-08-03T14:26:05.860Z,98045.78
2022-08-03T14:28:35.296Z,98040.31
2022-08-03T14:31:08.530Z,98040.34
2022-08-03T14:33:55.725Z,98046.00
2022-08-03T14:36:25.472Z,98045.28
2022-08-03T14:38:58.229Z,98038.91
2022-08-03T14:41:30.501Z,98042.34
2022-08-03T14:44:00.549Z,98037.38
2022-08-03T14:46:31.655Z,98029.66
2022-08-03T14:50:10.339Z,98035.94
2022-08-03T14:51:53.607Z,98029.50
2022-08-03T14:54:23.337Z,98029.34
2022-08-03T14:56:52.975Z,98024.34
2022-08-03T14:59:22.237Z,98029.94
2022-08-03T15:02:04.728Z,98025.81
2022-08-03T15:04:35.837Z,98030.16
2022-08-03T15:07:05.071Z,98015.34
2022-08-03T15:09:34.670Z,98016.13
2022-08-03T15:12:04.094Z,98013.38
2022-08-03T15:14:34.914Z,98010.53
2022-08-03T15:17:07.465Z,98013.88
2022-08-03T15:20:01.641Z,98007.44
2022-08-03T15:22:34.762Z,98015.19
2022-08-03T15:26:29.083Z,98008.69
2022-08-03T15:28:03.848Z,98000.16
2022-08-03T15:30:37.023Z,98007.06
2022-08-03T15:33:06.385Z,98005.47
2022-08-03T15:35:35.829Z,98001.84
2022-08-03T15:38:09.176Z,97999.66
2022-08-03T15:40:39.142Z,98005.78
2022-08-03T15:43:08.392Z,98002.16
2022-08-03T15:45:37.623Z,98001.97
2022-08-03T15:48:08.323Z,97996.19
2022-08-03T15:50:37.693Z,97996.81
2022-08-03T15:53:07.795Z,97994.00
2022-08-03T15:55:37.059Z,97986.03
2022-08-03T15:59:03.156Z,97997.34
2022-08-03T16:00:56.979Z,97988.69
2022-08-03T16:03:28.436Z,97987.25
2022-08-03T16:05:57.980Z,97989.44
2022-08-03T16:08:27.238Z,97983.78
2022-08-03T16:10:56.523Z,97977.41
2022-08-03T16:14:13.552Z,97980.25
2022-08-03T16:16:16.413Z,97979.53
2022-08-03T16:18:45.655Z,97973.06
2022-08-03T16:21:19.314Z,97975.84
2022-08-03T16:23:49.627Z,97972.28
2022-08-03T16:26:18.857Z,97978.66
2022-08-03T16:28:48.926Z,97978.00
2022-08-03T16:31:18.202Z,97972.34
2022-08-03T16:33:47.516Z,97977.22
2022-08-03T16:36:16.734Z,97975.72
2022-08-03T16:38:46.094Z,97975.66
2022-08-03T16:41:15.353Z,97975.66
2022-08-03T16:43:44.589Z,97980.59
2022-08-03T16:46:13.813Z,97981.31
2022-08-03T16:48:43.277Z,97972.78
2022-08-03T16:51:12.622Z,97977.03
2022-08-03T16:54:05.115Z,97967.78
2022-08-03T16:56:31.311Z,97979.78
2022-08-03T16:59:06.536Z,97985.38
2022-08-03T17:01:37.915Z,97987.50
2022-08-03T17:04:07.569Z,97983.91
2022-08-03T17:06:44.889Z,97977.47
2022-08-03T17:09:19.089Z,97973.16
2022-08-03T17:11:52.379Z,97978.00
2022-08-03T17:14:29.242Z,97975.13
2022-08-03T17:17:01.617Z,97987.09
2022-08-03T17:19:32.473Z,97983.44
2022-08-03T17:22:07.303Z,97990.47
2022-08-03T17:24:41.523Z,97984.72
2022-08-03T17:28:41.392Z,97991.63
2022-08-03T17:30:15.936Z,97991.41
2022-08-03T17:32:56.596Z,97991.34
2022-08-03T17:35:36.416Z,97989.78
2022-08-03T17:38:13.819Z,97980.44
2022-08-03T17:44:14.170Z,98002.06
2022-08-03T17:46:23.949Z,97994.91
2022-08-03T17:48:54.146Z,97996.22
2022-08-03T17:51:32.793Z,97994.69
2022-08-03T17:54:18.168Z,97993.91
2022-08-03T17:57:00.272Z,98002.19
2022-08-03T18:00:29.612Z,97997.88
2022-08-03T18:03:18.391Z,97999.19
2022-08-03T18:06:11.574Z,98006.22
2022-08-03T18:08:53.424Z,98003.28
2022-08-03T18:11:35.569Z,98007.31
2022-08-03T18:14:27.361Z,98004.06
2022-08-03T18:17:04.043Z,98010.84
2022-08-03T18:20:02.610Z,98014.75
2022-08-03T18:22:30.560Z,98015.19
2022-08-03T18:25:01.625Z,98018.34
2022-08-03T18:27:42.660Z,98015.97
2022-08-03T18:30:16.510Z,98023.53
2022-08-03T18:33:01.066Z,98017.03
2022-08-03T18:35:53.326Z,98021.09
2022-08-03T18:38:24.055Z,98015.34
2022-08-03T18:40:53.309Z,98020.13
2022-08-03T18:43:46.464Z,98015.75
2022-08-03T18:46:26.309Z,98018.16
2022-08-03T18:49:14.378Z,98015.19
2022-08-03T18:51:47.305Z,98017.78
2022-08-03T18:54:45.898Z,98029.53
2022-08-03T18:57:16.851Z,98020.69
2022-08-03T19:00:02.408Z,98020.50
2022-08-03T19:02:36.884Z,98024.47
2022-08-03T19:05:11.406Z,98028.44
2022-08-03T19:07:41.456Z,98023.25
2022-08-03T19:10:15.859Z,98022.31
2022-08-03T19:12:56.021Z,98025.66
2022-08-03T19:15:41.283Z,98023.97
2022-08-03T19:18:12.399Z,98021.56
2022-08-03T19:20:47.135Z,98021.28
2022-08-03T19:23:17.144Z,98026.63
2022-08-03T19:25:47.062Z,98028.47
2022-08-03T19:28:19.189Z,98038.06
2022-08-03T19:30:59.543Z,98026.44
2022-08-03T19:33:33.511Z,98031.03
2022-08-03T19:36:28.773Z,98036.97
2022-08-03T19:38:59.132Z,98038.75
2022-08-03T19:41:42.122Z,98035.53
2022-08-03T19:44:19.985Z,98040.75
2022-08-03T19:46:54.027Z,98041.00
2022-08-03T19:50:05.128Z,98036.44
2022-08-03T19:52:20.578Z,98047.34
2022-08-03T19:54:55.255Z,98043.53
2022-08-03T19:57:27.332Z,98045.34
2022-08-03T19:59:58.546Z,98036.59
2022-08-03T20:02:32.999Z,98037.69
2022-08-03T20:05:02.301Z,98040.16
2022-08-03T20:07:35.161Z,98040.53
2022-08-03T20:10:08.985Z,98036.84
2022-08-03T20:12:39.399Z,98046.25
2022-08-03T20:15:10.864Z,98052.13
2022-08-03T20:17:57.025Z,98044.63
2022-08-03T20:20:33.442Z,98047.53
2022-08-03T20:23:06.851Z,98044.34
2022-08-03T20:25:57.091Z,98042.53
2022-08-03T20:28:33.774Z,98049.88
2022-08-03T20:31:03.084Z,98053.03
2022-08-03T20:33:46.428Z,98049.22
2022-08-03T20:36:18.583Z,98044.56
2022-08-03T20:38:52.038Z,98037.94
2022-08-03T20:41:23.037Z,98041.19
2022-08-03T20:43:52.314Z,98049.41
2022-08-03T20:46:32.105Z,98055.63
2022-08-03T20:49:08.408Z,98050.47
2022-08-03T20:51:49.895Z,98044.69
2022-08-03T20:54:30.853Z,98044.38
2022-08-03T20:57:05.108Z,98047.81
2022-08-03T20:59:50.420Z,98049.69
2022-08-03T21:02:30.272Z,98048.66
2022-08-03T21:05:08.515Z,98049.75
2022-08-03T21:08:07.867Z,98045.88
2022-08-03T21:10:38.437Z,98047.97
2022-08-03T21:12:59.219Z,97996.53
2022-08-03T21:13:17.730Z,98043.63
2022-08-03T21:16:12.410Z,98048.28
2022-08-03T21:18:46.482Z,98045.19
2022-08-03T21:21:19.413Z,98042.81
2022-08-03T21:23:52.761Z,98049.47
2022-08-03T21:26:24.168Z,98051.94
2022-08-03T21:28:58.197Z,98047.38
2022-08-03T21:31:28.229Z,98054.97
2022-08-03T21:33:59.357Z,98042.81
2022-08-03T21:36:30.591Z,98046.03
2022-08-03T21:39:00.432Z,98042.91
2022-08-03T21:41:31.610Z,98040.72
2022-08-03T21:44:01.907Z,98042.16
2022-08-03T21:46:36.740Z,98034.59
2022-08-03T21:49:51.958Z,98039.47
2022-08-03T21:52:01.389Z,98037.41
2022-08-03T21:54:46.009Z,98038.88
2022-08-03T21:57:22.165Z,98033.88
2022-08-03T21:59:59.830Z,98039.47
2022-08-03T22:02:32.509Z,98044.84
2022-08-03T22:05:04.968Z,98037.59
2022-08-03T22:07:35.837Z,98038.72
2022-08-03T22:10:08.350Z,98040.38
2022-08-03T22:12:38.003Z,98031.66
2022-08-03T22:15:13.540Z,98036.31
2022-08-03T22:17:55.007Z,98034.63
2022-08-03T22:20:26.730Z,98030.69
2022-08-03T22:22:59.227Z,98029.03
2022-08-03T22:25:34.249Z,98039.16
2022-08-03T22:28:11.172Z,98047.22
2022-08-03T22:30:41.909Z,98044.56
2022-08-03T22:33:12.583Z,98049.09
2022-08-03T22:35:48.493Z,98038.09
2022-08-03T22:38:18.860Z,98044.16
2022-08-03T22:40:51.427Z,98039.81
2022-08-03T22:43:26.835Z,98039.69
2022-08-03T22:46:09.554Z,98049.91
2022-08-03T22:48:43.163Z,98041.06
2022-08-03T22:51:12.863Z,98042.78
2022-08-03T22:53:42.387Z,98051.56
2022-08-03T22:56:11.671Z,98049.88
2022-08-03T22:58:40.964Z,98058.88
2022-08-03T23:01:12.135Z,98057.28
2022-08-03T23:04:00.713Z,98044.44
2022-08-03T23:06:35.300Z,98059.63
2022-08-03T23:09:11.906Z,98049.44
2022-08-03T23:11:45.461Z,98058.78
2022-08-03T23:14:18.422Z,98056.84
2022-08-03T23:16:49.035Z,98044.59
2022-08-03T23:19:25.341Z,98055.41
2022-08-03T23:22:02.500Z,98046.31
2022-08-03T23:24:32.525Z,98056.84
2022-08-03T23:27:02.272Z,98047.03
2022-08-03T23:29:33.201Z,98050.19
2022-08-03T23:32:04.526Z,98043.03
2022-08-03T23:34:46.990Z,98042.19
2022-08-03T23:37:17.714Z,98037.81
2022-08-03T23:39:49.353Z,98052.50
2022-08-03T23:42:22.903Z,98057.34
2022-08-03T23:44:56.561Z,98043.88
2022-08-03T23:47:46.711Z,98053.59
2022-08-03T23:50:16.811Z,98054.69
2022-08-03T23:53:04.484Z,98047.53
2022-08-03T23:55:43.627Z,98050.19
2022-08-03T23:58:41.094Z,98044.97
